sensor_id;sensor_type;location;lat;lon;timestamp;temperature;humidity
5192;DHT22;2615;44.524;11.284;2024-03-08T00:00:38;9.50;55.10
5192;DHT22;2615;44.524;11.284;2024-03-08T00:03:07;9.50;55.10
5192;DHT22;2615;44.524;11.284;2024-03-08T00:05:38;9.50;55.20
5192;DHT22;2615;44.524;11.284;2024-03-08T00:08:07;9.40;55.20
5192;DHT22;2615;44.524;11.284;2024-03-08T00:10:36;9.50;55.30
5192;DHT22;2615;44.524;11.284;2024-03-08T00:13:05;9.40;55.30
5192;DHT22;2615;44.524;11.284;2024-03-08T00:15:34;9.50;55.40
5192;DHT22;2615;44.524;11.284;2024-03-08T00:18:02;9.50;55.40
5192;DHT22;2615;44.524;11.284;2024-03-08T00:20:31;9.50;55.40
5192;DHT22;2615;44.524;11.284;2024-03-08T00:23:00;9.50;55.50
5192;DHT22;2615;44.524;11.284;2024-03-08T00:25:29;9.50;55.50
5192;DHT22;2615;44.524;11.284;2024-03-08T00:27:57;9.40;55.40
5192;DHT22;2615;44.524;11.284;2024-03-08T00:30:26;9.40;55.50
5192;DHT22;2615;44.524;11.284;2024-03-08T00:32:55;9.40;55.60
5192;DHT22;2615;44.524;11.284;2024-03-08T00:35:23;9.40;55.60
5192;DHT22;2615;44.524;11.284;2024-03-08T00:37:51;9.30;55.60
5192;DHT22;2615;44.524;11.284;2024-03-08T00:40:24;9.30;55.60
5192;DHT22;2615;44.524;11.284;2024-03-08T00:42:52;9.30;55.70
5192;DHT22;2615;44.524;11.284;2024-03-08T00:45:21;9.30;55.70
5192;DHT22;2615;44.524;11.284;2024-03-08T00:47:50;9.30;55.80
5192;DHT22;2615;44.524;11.284;2024-03-08T00:50:18;9.30;55.80
5192;DHT22;2615;44.524;11.284;2024-03-08T00:52:47;9.20;55.80
5192;DHT22;2615;44.524;11.284;2024-03-08T00:55:15;9.20;55.80
5192;DHT22;2615;44.524;11.284;2024-03-08T00:57:45;9.20;55.90
5192;DHT22;2615;44.524;11.284;2024-03-08T01:00:14;9.10;55.80
5192;DHT22;2615;44.524;11.284;2024-03-08T01:02:42;9.10;55.90
5192;DHT22;2615;44.524;11.284;2024-03-08T01:05:10;9.10;56.00
5192;DHT22;2615;44.524;11.284;2024-03-08T01:07:38;9.10;56.10
5192;DHT22;2615;44.524;11.284;2024-03-08T01:10:07;9.10;56.10
5192;DHT22;2615;44.524;11.284;2024-03-08T01:12:37;9.00;56.10
5192;DHT22;2615;44.524;11.284;2024-03-08T01:15:08;9.00;56.10
5192;DHT22;2615;44.524;11.284;2024-03-08T01:17:37;9.00;56.20
5192;DHT22;2615;44.524;11.284;2024-03-08T01:20:07;8.90;56.10
5192;DHT22;2615;44.524;11.284;2024-03-08T01:22:38;8.90;56.20
5192;DHT22;2615;44.524;11.284;2024-03-08T01:25:07;8.90;56.20
5192;DHT22;2615;44.524;11.284;2024-03-08T01:27:35;8.90;56.30
5192;DHT22;2615;44.524;11.284;2024-03-08T01:30:04;8.90;56.40
5192;DHT22;2615;44.524;11.284;2024-03-08T01:32:34;8.80;56.30
5192;DHT22;2615;44.524;11.284;2024-03-08T01:35:03;8.80;56.30
5192;DHT22;2615;44.524;11.284;2024-03-08T01:37:31;8.80;56.30
5192;DHT22;2615;44.524;11.284;2024-03-08T01:39:59;8.80;56.40
5192;DHT22;2615;44.524;11.284;2024-03-08T01:42:28;8.80;56.50
5192;DHT22;2615;44.524;11.284;2024-03-08T01:44:56;8.70;56.40
5192;DHT22;2615;44.524;11.284;2024-03-08T01:47:24;8.70;56.50
5192;DHT22;2615;44.524;11.284;2024-03-08T01:49:54;8.70;56.50
5192;DHT22;2615;44.524;11.284;2024-03-08T01:52:23;8.70;56.50
5192;DHT22;2615;44.524;11.284;2024-03-08T01:54:52;8.60;56.50
5192;DHT22;2615;44.524;11.284;2024-03-08T01:57:20;8.60;56.60
5192;DHT22;2615;44.524;11.284;2024-03-08T01:59:49;8.60;56.60
5192;DHT22;2615;44.524;11.284;2024-03-08T02:02:18;8.60;56.70
5192;DHT22;2615;44.524;11.284;2024-03-08T02:04:47;8.50;56.70
5192;DHT22;2615;44.524;11.284;2024-03-08T02:07:17;8.50;56.70
5192;DHT22;2615;44.524;11.284;2024-03-08T02:09:45;8.50;56.70
5192;DHT22;2615;44.524;11.284;2024-03-08T02:12:13;8.40;56.70
5192;DHT22;2615;44.524;11.284;2024-03-08T02:14:42;8.30;56.60
5192;DHT22;2615;44.524;11.284;2024-03-08T02:17:11;8.30;56.70
5192;DHT22;2615;44.524;11.284;2024-03-08T02:19:39;8.30;56.80
5192;DHT22;2615;44.524;11.284;2024-03-08T02:22:09;8.20;56.80
5192;DHT22;2615;44.524;11.284;2024-03-08T02:24:37;8.20;56.80
5192;DHT22;2615;44.524;11.284;2024-03-08T02:27:06;8.10;56.70
5192;DHT22;2615;44.524;11.284;2024-03-08T02:29:34;8.10;56.80
5192;DHT22;2615;44.524;11.284;2024-03-08T02:32:03;8.00;56.80
5192;DHT22;2615;44.524;11.284;2024-03-08T02:34:31;8.00;56.90
5192;DHT22;2615;44.524;11.284;2024-03-08T02:36:59;8.00;57.00
5192;DHT22;2615;44.524;11.284;2024-03-08T02:39:29;8.00;57.10
5192;DHT22;2615;44.524;11.284;2024-03-08T02:41:59;7.90;57.10
5192;DHT22;2615;44.524;11.284;2024-03-08T02:44:27;8.00;57.20
5192;DHT22;2615;44.524;11.284;2024-03-08T02:46:55;7.90;57.10
5192;DHT22;2615;44.524;11.284;2024-03-08T02:49:23;7.90;57.10
5192;DHT22;2615;44.524;11.284;2024-03-08T02:51:52;7.90;57.20
5192;DHT22;2615;44.524;11.284;2024-03-08T02:54:20;7.90;57.20
5192;DHT22;2615;44.524;11.284;2024-03-08T02:56:50;7.80;57.20
5192;DHT22;2615;44.524;11.284;2024-03-08T02:59:18;7.80;57.20
5192;DHT22;2615;44.524;11.284;2024-03-08T03:01:46;7.80;57.20
5192;DHT22;2615;44.524;11.284;2024-03-08T03:04:14;7.70;57.20
5192;DHT22;2615;44.524;11.284;2024-03-08T03:06:42;7.70;57.30
5192;DHT22;2615;44.524;11.284;2024-03-08T03:09:11;7.70;57.30
5192;DHT22;2615;44.524;11.284;2024-03-08T03:11:39;7.60;57.40
5192;DHT22;2615;44.524;11.284;2024-03-08T03:14:09;7.60;58.00
5192;DHT22;2615;44.524;11.284;2024-03-08T03:16:37;7.60;57.50
5192;DHT22;2615;44.524;11.284;2024-03-08T03:19:05;7.50;57.40
5192;DHT22;2615;44.524;11.284;2024-03-08T03:21:35;7.50;57.40
5192;DHT22;2615;44.524;11.284;2024-03-08T03:24:05;7.50;57.50
5192;DHT22;2615;44.524;11.284;2024-03-08T03:26:37;7.40;57.40
5192;DHT22;2615;44.524;11.284;2024-03-08T03:29:09;7.40;57.50
5192;DHT22;2615;44.524;11.284;2024-03-08T03:31:38;7.30;57.50
5192;DHT22;2615;44.524;11.284;2024-03-08T03:34:07;7.30;57.50
5192;DHT22;2615;44.524;11.284;2024-03-08T03:36:35;7.20;57.50
5192;DHT22;2615;44.524;11.284;2024-03-08T03:39:05;7.20;57.50
5192;DHT22;2615;44.524;11.284;2024-03-08T03:41:38;7.20;57.60
5192;DHT22;2615;44.524;11.284;2024-03-08T03:44:06;7.20;57.70
5192;DHT22;2615;44.524;11.284;2024-03-08T03:46:36;7.20;57.70
5192;DHT22;2615;44.524;11.284;2024-03-08T03:49:04;7.10;57.60
5192;DHT22;2615;44.524;11.284;2024-03-08T03:51:32;7.10;57.70
5192;DHT22;2615;44.524;11.284;2024-03-08T03:54:01;7.10;57.70
5192;DHT22;2615;44.524;11.284;2024-03-08T03:56:30;7.10;57.80
5192;DHT22;2615;44.524;11.284;2024-03-08T03:58:59;7.10;57.90
5192;DHT22;2615;44.524;11.284;2024-03-08T04:01:27;7.10;57.90
5192;DHT22;2615;44.524;11.284;2024-03-08T04:03:57;7.10;58.00
5192;DHT22;2615;44.524;11.284;2024-03-08T04:06:26;7.10;58.00
5192;DHT22;2615;44.524;11.284;2024-03-08T04:08:54;7.10;58.00
5192;DHT22;2615;44.524;11.284;2024-03-08T04:11:22;7.10;58.10
5192;DHT22;2615;44.524;11.284;2024-03-08T04:13:50;7.10;58.10
5192;DHT22;2615;44.524;11.284;2024-03-08T04:16:19;7.10;58.20
5192;DHT22;2615;44.524;11.284;2024-03-08T04:18:47;7.10;58.20
5192;DHT22;2615;44.524;11.284;2024-03-08T04:21:17;7.10;58.20
5192;DHT22;2615;44.524;11.284;2024-03-08T04:23:46;7.00;58.20
5192;DHT22;2615;44.524;11.284;2024-03-08T04:26:15;7.10;58.30
5192;DHT22;2615;44.524;11.284;2024-03-08T04:28:45;7.10;58.40
5192;DHT22;2615;44.524;11.284;2024-03-08T04:31:13;7.10;58.30
5192;DHT22;2615;44.524;11.284;2024-03-08T04:33:42;7.10;58.30
5192;DHT22;2615;44.524;11.284;2024-03-08T04:36:11;7.10;58.30
5192;DHT22;2615;44.524;11.284;2024-03-08T04:38:42;7.00;58.20
5192;DHT22;2615;44.524;11.284;2024-03-08T04:41:10;7.00;58.20
5192;DHT22;2615;44.524;11.284;2024-03-08T04:43:38;7.00;58.30
5192;DHT22;2615;44.524;11.284;2024-03-08T04:46:07;7.00;58.30
5192;DHT22;2615;44.524;11.284;2024-03-08T04:48:35;6.90;58.30
5192;DHT22;2615;44.524;11.284;2024-03-08T04:51:04;6.90;58.40
5192;DHT22;2615;44.524;11.284;2024-03-08T04:53:33;6.90;58.30
5192;DHT22;2615;44.524;11.284;2024-03-08T04:56:03;6.90;58.30
5192;DHT22;2615;44.524;11.284;2024-03-08T04:58:33;6.80;58.30
5192;DHT22;2615;44.524;11.284;2024-03-08T05:01:03;6.80;58.40
5192;DHT22;2615;44.524;11.284;2024-03-08T05:03:32;6.80;58.50
5192;DHT22;2615;44.524;11.284;2024-03-08T05:06:00;6.70;58.40
5192;DHT22;2615;44.524;11.284;2024-03-08T05:08:28;6.70;58.50
5192;DHT22;2615;44.524;11.284;2024-03-08T05:10:57;6.80;58.60
5192;DHT22;2615;44.524;11.284;2024-03-08T05:13:26;6.80;58.60
5192;DHT22;2615;44.524;11.284;2024-03-08T05:15:55;7.10;58.80
5192;DHT22;2615;44.524;11.284;2024-03-08T05:18:25;6.80;58.60
5192;DHT22;2615;44.524;11.284;2024-03-08T05:20:55;6.80;58.70
5192;DHT22;2615;44.524;11.284;2024-03-08T05:23:23;6.80;58.70
5192;DHT22;2615;44.524;11.284;2024-03-08T05:25:51;6.80;58.70
5192;DHT22;2615;44.524;11.284;2024-03-08T05:28:20;6.80;58.70
5192;DHT22;2615;44.524;11.284;2024-03-08T05:30:49;6.80;58.70
5192;DHT22;2615;44.524;11.284;2024-03-08T05:33:17;6.80;58.70
5192;DHT22;2615;44.524;11.284;2024-03-08T05:38:15;6.80;58.30
5192;DHT22;2615;44.524;11.284;2024-03-08T05:40:43;6.80;58.70
5192;DHT22;2615;44.524;11.284;2024-03-08T05:43:11;6.70;58.70
5192;DHT22;2615;44.524;11.284;2024-03-08T05:45:40;6.70;58.70
5192;DHT22;2615;44.524;11.284;2024-03-08T05:48:09;6.70;58.70
5192;DHT22;2615;44.524;11.284;2024-03-08T05:50:39;6.80;58.80
5192;DHT22;2615;44.524;11.284;2024-03-08T05:53:08;6.80;58.80
5192;DHT22;2615;44.524;11.284;2024-03-08T05:55:36;6.80;58.90
5192;DHT22;2615;44.524;11.284;2024-03-08T05:58:05;6.80;58.90
5192;DHT22;2615;44.524;11.284;2024-03-08T06:00:34;6.80;58.90
5192;DHT22;2615;44.524;11.284;2024-03-08T06:03:04;6.80;58.90
5192;DHT22;2615;44.524;11.284;2024-03-08T06:05:33;6.90;59.00
5192;DHT22;2615;44.524;11.284;2024-03-08T06:08:02;6.90;59.00
5192;DHT22;2615;44.524;11.284;2024-03-08T06:10:31;6.90;59.00
5192;DHT22;2615;44.524;11.284;2024-03-08T06:12:59;7.00;59.10
5192;DHT22;2615;44.524;11.284;2024-03-08T06:15:28;7.00;59.00
5192;DHT22;2615;44.524;11.284;2024-03-08T06:17:57;7.00;59.00
5192;DHT22;2615;44.524;11.284;2024-03-08T06:20:25;7.10;59.10
5192;DHT22;2615;44.524;11.284;2024-03-08T06:22:55;7.10;59.10
5192;DHT22;2615;44.524;11.284;2024-03-08T06:25:23;7.20;59.10
5192;DHT22;2615;44.524;11.284;2024-03-08T06:27:51;7.20;59.10
5192;DHT22;2615;44.524;11.284;2024-03-08T06:30:20;7.30;59.10
5192;DHT22;2615;44.524;11.284;2024-03-08T06:32:48;7.30;59.10
5192;DHT22;2615;44.524;11.284;2024-03-08T06:35:17;7.40;59.20
5192;DHT22;2615;44.524;11.284;2024-03-08T06:37:47;7.40;59.10
5192;DHT22;2615;44.524;11.284;2024-03-08T06:40:17;7.50;59.20
5192;DHT22;2615;44.524;11.284;2024-03-08T06:42:45;7.50;59.10
5192;DHT22;2615;44.524;11.284;2024-03-08T06:45:13;7.60;59.20
5192;DHT22;2615;44.524;11.284;2024-03-08T06:47:46;7.70;59.20
5192;DHT22;2615;44.524;11.284;2024-03-08T06:50:15;7.70;59.20
5192;DHT22;2615;44.524;11.284;2024-03-08T06:52:43;7.80;59.20
5192;DHT22;2615;44.524;11.284;2024-03-08T06:55:16;7.90;59.20
5192;DHT22;2615;44.524;11.284;2024-03-08T06:57:44;8.00;59.20
5192;DHT22;2615;44.524;11.284;2024-03-08T07:00:13;8.00;59.10
5192;DHT22;2615;44.524;11.284;2024-03-08T07:02:46;8.10;59.20
5192;DHT22;2615;44.524;11.284;2024-03-08T07:05:16;8.20;59.20
5192;DHT22;2615;44.524;11.284;2024-03-08T07:07:44;8.20;59.10
5192;DHT22;2615;44.524;11.284;2024-03-08T07:10:16;8.30;59.20
5192;DHT22;2615;44.524;11.284;2024-03-08T07:12:46;8.40;59.20
5192;DHT22;2615;44.524;11.284;2024-03-08T07:15:14;8.50;59.10
5192;DHT22;2615;44.524;11.284;2024-03-08T07:17:43;8.60;59.20
5192;DHT22;2615;44.524;11.284;2024-03-08T07:20:12;8.70;59.20
5192;DHT22;2615;44.524;11.284;2024-03-08T07:22:42;8.80;59.10
5192;DHT22;2615;44.524;11.284;2024-03-08T07:25:16;8.80;59.10
5192;DHT22;2615;44.524;11.284;2024-03-08T07:27:51;8.90;59.00
5192;DHT22;2615;44.524;11.284;2024-03-08T07:30:20;9.00;59.10
5192;DHT22;2615;44.524;11.284;2024-03-08T07:33:05;9.10;59.10
5192;DHT22;2615;44.524;11.284;2024-03-08T07:35:34;9.20;59.10
5192;DHT22;2615;44.524;11.284;2024-03-08T07:38:04;9.30;59.10
5192;DHT22;2615;44.524;11.284;2024-03-08T07:40:35;9.30;59.00
5192;DHT22;2615;44.524;11.284;2024-03-08T07:43:03;9.40;59.10
5192;DHT22;2615;44.524;11.284;2024-03-08T07:45:32;9.40;59.10
5192;DHT22;2615;44.524;11.284;2024-03-08T07:48:00;9.50;59.20
5192;DHT22;2615;44.524;11.284;2024-03-08T07:50:30;9.60;59.20
5192;DHT22;2615;44.524;11.284;2024-03-08T07:53:00;9.60;59.20
5192;DHT22;2615;44.524;11.284;2024-03-08T07:55:30;9.80;59.30
5192;DHT22;2615;44.524;11.284;2024-03-08T07:57:59;9.90;59.30
5192;DHT22;2615;44.524;11.284;2024-03-08T08:00:28;10.00;58.40
5192;DHT22;2615;44.524;11.284;2024-03-08T08:02:58;10.20;58.50
5192;DHT22;2615;44.524;11.284;2024-03-08T08:05:26;10.30;58.40
5192;DHT22;2615;44.524;11.284;2024-03-08T08:07:54;10.40;58.40
5192;DHT22;2615;44.524;11.284;2024-03-08T08:10:23;10.50;58.40
5192;DHT22;2615;44.524;11.284;2024-03-08T08:12:52;10.60;58.40
5192;DHT22;2615;44.524;11.284;2024-03-08T08:15:22;10.70;58.30
5192;DHT22;2615;44.524;11.284;2024-03-08T08:17:50;10.80;58.30
5192;DHT22;2615;44.524;11.284;2024-03-08T08:20:19;10.90;58.20
5192;DHT22;2615;44.524;11.284;2024-03-08T08:22:48;11.00;58.30
5192;DHT22;2615;44.524;11.284;2024-03-08T08:25:17;11.00;58.20
5192;DHT22;2615;44.524;11.284;2024-03-08T08:27:47;11.10;58.30
5192;DHT22;2615;44.524;11.284;2024-03-08T08:30:15;11.20;58.40
5192;DHT22;2615;44.524;11.284;2024-03-08T08:32:45;11.40;58.40
5192;DHT22;2615;44.524;11.284;2024-03-08T08:35:15;11.50;58.40
5192;DHT22;2615;44.524;11.284;2024-03-08T08:37:46;11.60;58.30
5192;DHT22;2615;44.524;11.284;2024-03-08T08:40:15;11.70;58.30
5192;DHT22;2615;44.524;11.284;2024-03-08T08:42:45;11.80;58.30
5192;DHT22;2615;44.524;11.284;2024-03-08T08:45:16;11.90;58.20
5192;DHT22;2615;44.524;11.284;2024-03-08T08:47:52;11.90;58.70
5192;DHT22;2615;44.524;11.284;2024-03-08T08:50:21;12.00;58.10
5192;DHT22;2615;44.524;11.284;2024-03-08T08:52:51;12.10;58.10
5192;DHT22;2615;44.524;11.284;2024-03-08T08:55:20;12.20;58.10
5192;DHT22;2615;44.524;11.284;2024-03-08T08:57:52;12.30;58.10
5192;DHT22;2615;44.524;11.284;2024-03-08T09:00:21;12.30;58.00
5192;DHT22;2615;44.524;11.284;2024-03-08T09:02:55;12.40;57.80
5192;DHT22;2615;44.524;11.284;2024-03-08T09:05:25;12.50;57.80
5192;DHT22;2615;44.524;11.284;2024-03-08T09:07:54;12.60;57.80
5192;DHT22;2615;44.524;11.284;2024-03-08T09:10:22;12.60;57.70
5192;DHT22;2615;44.524;11.284;2024-03-08T09:12:56;12.70;57.70
5192;DHT22;2615;44.524;11.284;2024-03-08T09:15:26;12.80;57.60
5192;DHT22;2615;44.524;11.284;2024-03-08T09:17:57;12.80;57.60
5192;DHT22;2615;44.524;11.284;2024-03-08T09:20:26;13.00;57.70
5192;DHT22;2615;44.524;11.284;2024-03-08T09:22:55;13.10;57.70
5192;DHT22;2615;44.524;11.284;2024-03-08T09:25:23;13.20;57.60
5192;DHT22;2615;44.524;11.284;2024-03-08T09:27:52;13.30;57.60
5192;DHT22;2615;44.524;11.284;2024-03-08T09:30:21;13.40;57.40
5192;DHT22;2615;44.524;11.284;2024-03-08T09:32:49;13.60;57.50
5192;DHT22;2615;44.524;11.284;2024-03-08T09:35:20;13.70;57.30
5192;DHT22;2615;44.524;11.284;2024-03-08T09:37:48;13.80;57.30
5192;DHT22;2615;44.524;11.284;2024-03-08T09:40:19;14.00;57.30
5192;DHT22;2615;44.524;11.284;2024-03-08T09:42:48;14.20;57.20
5192;DHT22;2615;44.524;11.284;2024-03-08T09:45:17;14.40;57.10
5192;DHT22;2615;44.524;11.284;2024-03-08T09:47:49;14.50;56.90
5192;DHT22;2615;44.524;11.284;2024-03-08T09:50:17;14.60;56.80
5192;DHT22;2615;44.524;11.284;2024-03-08T09:52:49;14.60;56.70
5192;DHT22;2615;44.524;11.284;2024-03-08T09:55:17;14.80;56.90
5192;DHT22;2615;44.524;11.284;2024-03-08T09:57:51;15.00;56.90
5192;DHT22;2615;44.524;11.284;2024-03-08T10:00:37;15.20;56.90
5192;DHT22;2615;44.524;11.284;2024-03-08T10:03:05;15.50;56.80
5192;DHT22;2615;44.524;11.284;2024-03-08T10:05:34;15.80;56.80
5192;DHT22;2615;44.524;11.284;2024-03-08T10:08:04;16.10;56.60
5192;DHT22;2615;44.524;11.284;2024-03-08T10:10:34;16.40;56.90
5192;DHT22;2615;44.524;11.284;2024-03-08T10:13:04;16.70;56.30
5192;DHT22;2615;44.524;11.284;2024-03-08T10:15:33;16.90;56.00
5192;DHT22;2615;44.524;11.284;2024-03-08T10:18:01;17.20;55.80
5192;DHT22;2615;44.524;11.284;2024-03-08T10:20:31;17.30;55.50
5192;DHT22;2615;44.524;11.284;2024-03-08T10:23:01;17.40;55.20
5192;DHT22;2615;44.524;11.284;2024-03-08T10:25:39;17.40;55.10
5192;DHT22;2615;44.524;11.284;2024-03-08T10:28:07;17.60;55.10
5192;DHT22;2615;44.524;11.284;2024-03-08T10:30:35;17.70;55.10
5192;DHT22;2615;44.524;11.284;2024-03-08T10:33:04;17.90;55.00
5192;DHT22;2615;44.524;11.284;2024-03-08T10:35:34;18.10;54.70
5192;DHT22;2615;44.524;11.284;2024-03-08T10:38:04;18.40;54.70
5192;DHT22;2615;44.524;11.284;2024-03-08T10:40:35;18.70;54.40
5192;DHT22;2615;44.524;11.284;2024-03-08T10:43:16;18.90;54.20
5192;DHT22;2615;44.524;11.284;2024-03-08T10:46:01;19.20;54.30
5192;DHT22;2615;44.524;11.284;2024-03-08T10:48:32;19.50;54.30
5192;DHT22;2615;44.524;11.284;2024-03-08T10:51:06;19.80;54.10
5192;DHT22;2615;44.524;11.284;2024-03-08T10:53:38;20.10;53.90
5192;DHT22;2615;44.524;11.284;2024-03-08T10:56:08;20.40;53.70
5192;DHT22;2615;44.524;11.284;2024-03-08T10:58:39;20.70;53.50
5192;DHT22;2615;44.524;11.284;2024-03-08T11:01:07;20.90;53.10
5192;DHT22;2615;44.524;11.284;2024-03-08T11:03:47;20.90;52.70
5192;DHT22;2615;44.524;11.284;2024-03-08T11:06:23;21.10;52.80
5192;DHT22;2615;44.524;11.284;2024-03-08T11:11:27;21.70;52.10
5192;DHT22;2615;44.524;11.284;2024-03-08T11:14:02;21.70;52.10
5192;DHT22;2615;44.524;11.284;2024-03-08T11:16:39;21.80;52.10
5192;DHT22;2615;44.524;11.284;2024-03-08T11:19:24;21.80;51.80
5192;DHT22;2615;44.524;11.284;2024-03-08T11:22:00;21.90;51.40
5192;DHT22;2615;44.524;11.284;2024-03-08T11:24:38;21.80;51.30
5192;DHT22;2615;44.524;11.284;2024-03-08T11:27:08;21.80;51.30
5192;DHT22;2615;44.524;11.284;2024-03-08T11:29:38;22.10;51.50
5192;DHT22;2615;44.524;11.284;2024-03-08T11:34:40;22.90;50.60
5192;DHT22;2615;44.524;11.284;2024-03-08T11:37:13;23.20;50.60
5192;DHT22;2615;44.524;11.284;2024-03-08T11:39:47;23.70;50.40
5192;DHT22;2615;44.524;11.284;2024-03-08T11:42:16;24.30;49.90
5192;DHT22;2615;44.524;11.284;2024-03-08T11:44:46;24.90;49.60
5192;DHT22;2615;44.524;11.284;2024-03-08T11:47:15;25.40;48.70
5192;DHT22;2615;44.524;11.284;2024-03-08T11:49:44;25.70;48.10
5192;DHT22;2615;44.524;11.284;2024-03-08T11:52:16;26.00;47.50
5192;DHT22;2615;44.524;11.284;2024-03-08T11:54:51;26.30;46.90
5192;DHT22;2615;44.524;11.284;2024-03-08T11:57:22;26.70;46.30
5192;DHT22;2615;44.524;11.284;2024-03-08T11:59:52;27.10;45.80
5192;DHT22;2615;44.524;11.284;2024-03-08T12:02:23;27.40;45.20
5192;DHT22;2615;44.524;11.284;2024-03-08T12:04:56;27.50;44.50
5192;DHT22;2615;44.524;11.284;2024-03-08T12:07:27;27.50;44.20
5192;DHT22;2615;44.524;11.284;2024-03-08T12:10:17;27.80;44.10
5192;DHT22;2615;44.524;11.284;2024-03-08T12:12:47;27.80;43.00
5192;DHT22;2615;44.524;11.284;2024-03-08T12:15:18;27.80;43.00
5192;DHT22;2615;44.524;11.284;2024-03-08T12:17:49;27.70;42.90
5192;DHT22;2615;44.524;11.284;2024-03-08T12:20:18;27.70;42.50
5192;DHT22;2615;44.524;11.284;2024-03-08T12:22:49;27.60;42.50
5192;DHT22;2615;44.524;11.284;2024-03-08T12:25:20;27.40;42.40
5192;DHT22;2615;44.524;11.284;2024-03-08T12:27:48;27.20;42.30
5192;DHT22;2615;44.524;11.284;2024-03-08T12:30:22;26.60;42.30
5192;DHT22;2615;44.524;11.284;2024-03-08T12:32:55;25.60;42.40
5192;DHT22;2615;44.524;11.284;2024-03-08T12:35:26;24.70;42.90
5192;DHT22;2615;44.524;11.284;2024-03-08T12:37:56;23.90;43.00
5192;DHT22;2615;44.524;11.284;2024-03-08T12:40:28;23.10;43.20
5192;DHT22;2615;44.524;11.284;2024-03-08T12:42:59;22.40;43.50
5192;DHT22;2615;44.524;11.284;2024-03-08T12:45:28;21.80;44.00
5192;DHT22;2615;44.524;11.284;2024-03-08T12:47:56;21.20;44.30
5192;DHT22;2615;44.524;11.284;2024-03-08T12:50:26;20.70;44.70
5192;DHT22;2615;44.524;11.284;2024-03-08T12:52:54;20.20;45.20
5192;DHT22;2615;44.524;11.284;2024-03-08T12:55:22;19.90;45.60
5192;DHT22;2615;44.524;11.284;2024-03-08T12:57:51;19.60;45.90
5192;DHT22;2615;44.524;11.284;2024-03-08T13:00:20;19.30;46.30
5192;DHT22;2615;44.524;11.284;2024-03-08T13:02:52;19.00;46.50
5192;DHT22;2615;44.524;11.284;2024-03-08T13:05:20;18.70;46.80
5192;DHT22;2615;44.524;11.284;2024-03-08T13:07:48;18.50;47.10
5192;DHT22;2615;44.524;11.284;2024-03-08T13:10:17;18.20;47.30
5192;DHT22;2615;44.524;11.284;2024-03-08T13:12:47;17.90;47.50
5192;DHT22;2615;44.524;11.284;2024-03-08T13:15:19;17.70;47.90
5192;DHT22;2615;44.524;11.284;2024-03-08T13:17:48;17.50;48.20
5192;DHT22;2615;44.524;11.284;2024-03-08T13:20:18;17.40;48.40
5192;DHT22;2615;44.524;11.284;2024-03-08T13:22:57;17.20;48.60
5192;DHT22;2615;44.524;11.284;2024-03-08T13:25:28;17.00;48.80
5192;DHT22;2615;44.524;11.284;2024-03-08T13:27:57;16.90;49.30
5192;DHT22;2615;44.524;11.284;2024-03-08T13:30:27;17.00;49.70
5192;DHT22;2615;44.524;11.284;2024-03-08T13:32:57;16.90;49.60
5192;DHT22;2615;44.524;11.284;2024-03-08T13:35:27;17.00;49.90
5192;DHT22;2615;44.524;11.284;2024-03-08T13:37:57;17.00;50.00
5192;DHT22;2615;44.524;11.284;2024-03-08T13:40:25;17.00;50.10
5192;DHT22;2615;44.524;11.284;2024-03-08T13:42:54;17.00;50.20
5192;DHT22;2615;44.524;11.284;2024-03-08T13:45:22;17.00;50.20
5192;DHT22;2615;44.524;11.284;2024-03-08T13:47:52;16.90;50.20
5192;DHT22;2615;44.524;11.284;2024-03-08T13:50:21;16.70;50.20
5192;DHT22;2615;44.524;11.284;2024-03-08T13:52:51;16.70;50.50
5192;DHT22;2615;44.524;11.284;2024-03-08T13:55:22;16.60;50.60
5192;DHT22;2615;44.524;11.284;2024-03-08T13:57:53;16.60;50.80
5192;DHT22;2615;44.524;11.284;2024-03-08T14:00:21;16.60;50.90
5192;DHT22;2615;44.524;11.284;2024-03-08T14:02:52;16.70;51.10
5192;DHT22;2615;44.524;11.284;2024-03-08T14:05:21;16.90;51.20
5192;DHT22;2615;44.524;11.284;2024-03-08T14:07:50;17.00;51.10
5192;DHT22;2615;44.524;11.284;2024-03-08T14:10:21;17.00;51.00
5192;DHT22;2615;44.524;11.284;2024-03-08T14:12:50;17.00;51.00
5192;DHT22;2615;44.524;11.284;2024-03-08T14:15:19;16.80;50.80
5192;DHT22;2615;44.524;11.284;2024-03-08T14:17:52;16.60;50.80
5192;DHT22;2615;44.524;11.284;2024-03-08T14:20:21;16.40;51.00
5192;DHT22;2615;44.524;11.284;2024-03-08T14:22:54;16.10;51.10
5192;DHT22;2615;44.524;11.284;2024-03-08T14:25:24;15.90;51.30
5192;DHT22;2615;44.524;11.284;2024-03-08T14:30:25;15.70;51.40
5192;DHT22;2615;44.524;11.284;2024-03-08T14:33:08;15.60;51.90
5192;DHT22;2615;44.524;11.284;2024-03-08T14:35:37;15.50;52.00
5192;DHT22;2615;44.524;11.284;2024-03-08T14:38:06;15.40;52.20
5192;DHT22;2615;44.524;11.284;2024-03-08T14:40:35;15.50;52.40
5192;DHT22;2615;44.524;11.284;2024-03-08T14:43:05;15.60;53.20
5192;DHT22;2615;44.524;11.284;2024-03-08T14:45:33;15.70;52.70
5192;DHT22;2615;44.524;11.284;2024-03-08T14:48:01;15.80;52.70
5192;DHT22;2615;44.524;11.284;2024-03-08T14:50:31;15.80;52.70
5192;DHT22;2615;44.524;11.284;2024-03-08T14:53:00;15.80;52.70
5192;DHT22;2615;44.524;11.284;2024-03-08T14:55:34;15.80;52.60
5192;DHT22;2615;44.524;11.284;2024-03-08T14:58:03;15.70;52.60
5192;DHT22;2615;44.524;11.284;2024-03-08T15:00:32;15.50;52.70
5192;DHT22;2615;44.524;11.284;2024-03-08T15:03:02;15.40;52.80
5192;DHT22;2615;44.524;11.284;2024-03-08T15:05:32;15.30;52.90
5192;DHT22;2615;44.524;11.284;2024-03-08T15:08:06;15.20;53.00
5192;DHT22;2615;44.524;11.284;2024-03-08T15:10:40;15.00;53.00
5192;DHT22;2615;44.524;11.284;2024-03-08T15:13:09;14.90;53.20
5192;DHT22;2615;44.524;11.284;2024-03-08T15:15:49;14.80;53.40
5192;DHT22;2615;44.524;11.284;2024-03-08T15:18:23;14.70;53.50
5192;DHT22;2615;44.524;11.284;2024-03-08T15:20:57;14.60;53.70
5192;DHT22;2615;44.524;11.284;2024-03-08T15:23:26;14.50;53.80
5192;DHT22;2615;44.524;11.284;2024-03-08T15:25:55;14.40;53.90
5192;DHT22;2615;44.524;11.284;2024-03-08T15:28:24;14.30;54.00
5192;DHT22;2615;44.524;11.284;2024-03-08T15:31:01;14.20;54.10
5192;DHT22;2615;44.524;11.284;2024-03-08T15:33:33;14.20;54.30
5192;DHT22;2615;44.524;11.284;2024-03-08T15:36:01;14.10;54.30
5192;DHT22;2615;44.524;11.284;2024-03-08T15:38:35;14.10;54.50
5192;DHT22;2615;44.524;11.284;2024-03-08T15:41:05;14.00;54.50
5192;DHT22;2615;44.524;11.284;2024-03-08T15:43:36;14.00;54.70
5192;DHT22;2615;44.524;11.284;2024-03-08T15:46:06;13.90;54.80
5192;DHT22;2615;44.524;11.284;2024-03-08T15:48:36;13.90;54.90
5192;DHT22;2615;44.524;11.284;2024-03-08T15:51:05;13.80;55.00
5192;DHT22;2615;44.524;11.284;2024-03-08T15:53:33;13.80;55.10
5192;DHT22;2615;44.524;11.284;2024-03-08T15:56:04;13.70;55.20
5192;DHT22;2615;44.524;11.284;2024-03-08T15:58:34;13.70;55.20
5192;DHT22;2615;44.524;11.284;2024-03-08T16:01:04;13.70;55.40
5192;DHT22;2615;44.524;11.284;2024-03-08T16:03:37;13.60;55.40
5192;DHT22;2615;44.524;11.284;2024-03-08T16:06:07;13.50;55.50
5192;DHT22;2615;44.524;11.284;2024-03-08T16:08:37;13.50;55.60
5192;DHT22;2615;44.524;11.284;2024-03-08T16:11:08;13.50;55.70
5192;DHT22;2615;44.524;11.284;2024-03-08T16:13:37;13.40;55.80
5192;DHT22;2615;44.524;11.284;2024-03-08T16:16:06;13.40;55.90
5192;DHT22;2615;44.524;11.284;2024-03-08T16:18:34;13.30;55.90
5192;DHT22;2615;44.524;11.284;2024-03-08T16:21:05;13.20;56.00